Time;durP1;ratioP1;P1;durP2;ratioP2;P2;SDS_P1;SDS_P2;PMS_P1;PMS_P2;Temp;Humidity;BMP_temperature;BMP_pressure;BME280_temperature;BME280_humidity;BME280_pressure;Samples;Min_cycle;Max_cycle;Signal;HPM_P1;HPM_P2
2023/12/26 00:00:12;;;;;;;0.87;0.87;;;12.40;99.90;;;;;;5031100;28;20223;-77
2023/12/26 00:02:40;;;;;;;1.00;0.90;;;12.40;99.90;;;;;;5032929;28;20198;-77
2023/12/26 00:05:08;;;;;;;1.07;0.93;;;12.30;99.90;;;;;;5031065;28;20219;-77
2023/12/26 00:07:37;;;;;;;0.80;0.70;;;12.30;99.90;;;;;;5029693;28;20203;-77
2023/12/26 00:10:05;;;;;;;1.43;0.93;;;12.30;99.90;;;;;;5028205;28;20322;-77
2023/12/26 00:12:33;;;;;;;1.17;1.07;;;12.30;99.90;;;;;;5025241;28;20200;-77
2023/12/26 00:15:00;;;;;;;2.83;1.20;;;12.30;99.90;;;;;;5012340;28;20199;-77
2023/12/26 00:17:28;;;;;;;1.27;1.00;;;12.30;99.90;;;;;;5028634;28;20210;-77
2023/12/26 00:19:55;;;;;;;1.40;0.90;;;12.30;99.90;;;;;;5030233;28;20222;-77
2023/12/26 00:22:23;;;;;;;1.60;1.07;;;12.20;99.90;;;;;;5031798;28;20539;-77
2023/12/26 00:24:52;;;;;;;1.83;1.20;;;12.20;99.90;;;;;;5031735;28;20198;-77
2023/12/26 00:27:20;;;;;;;2.43;1.30;;;12.20;99.90;;;;;;5030943;28;20564;-77
2023/12/26 00:30:42;;;;;;;1.80;0.90;;;12.20;99.90;;;;;;5030522;28;20218;-77
2023/12/26 00:33:09;;;;;;;1.37;1.00;;;12.20;99.90;;;;;;5030872;28;20680;-77
2023/12/26 00:35:37;;;;;;;1.40;1.20;;;12.20;99.90;;;;;;5027482;28;20199;-77
2023/12/26 00:38:04;;;;;;;1.10;1.00;;;12.20;99.90;;;;;;5030792;28;20209;-77
2023/12/26 00:40:33;;;;;;;1.40;1.13;;;12.10;99.90;;;;;;5030691;28;20199;-77
2023/12/26 00:43:01;;;;;;;1.53;1.07;;;12.10;99.90;;;;;;5031298;28;20679;-77
2023/12/26 00:45:28;;;;;;;1.30;1.10;;;12.20;99.90;;;;;;5028458;28;20227;-77
2023/12/26 00:47:57;;;;;;;1.00;0.90;;;12.10;99.90;;;;;;5012511;28;20183;-77
2023/12/26 00:50:24;;;;;;;1.13;0.97;;;12.10;99.90;;;;;;5011299;28;20691;-77
2023/12/26 00:52:52;;;;;;;1.40;0.93;;;12.10;99.90;;;;;;5011057;28;20222;-77
2023/12/26 00:55:19;;;;;;;1.63;0.87;;;12.10;99.90;;;;;;5016574;28;20194;-77
2023/12/26 00:57:48;;;;;;;1.30;1.10;;;12.00;99.90;;;;;;5036350;28;20643;-77
2023/12/26 01:00:17;;;;;;;1.30;1.20;;;12.00;99.90;;;;;;5042465;28;20198;-77
2023/12/26 01:02:46;;;;;;;1.73;1.10;;;12.00;99.90;;;;;;5053221;28;20193;-77
2023/12/26 01:05:13;;;;;;;0.90;0.67;;;12.00;99.90;;;;;;5033532;28;20195;-77
2023/12/26 01:07:41;;;;;;;2.13;0.80;;;12.00;99.90;;;;;;5041930;28;20564;-77
2023/12/26 01:10:09;;;;;;;0.87;0.83;;;11.90;99.90;;;;;;5053619;28;20214;-77
2023/12/26 01:12:37;;;;;;;0.87;0.80;;;11.90;99.90;;;;;;5033930;28;20191;-77
2023/12/26 01:15:06;;;;;;;1.13;0.97;;;11.90;99.90;;;;;;5025264;28;20203;-77
2023/12/26 01:17:34;;;;;;;0.80;0.77;;;11.90;99.90;;;;;;5015392;28;20199;-77
2023/12/26 01:20:02;;;;;;;2.37;0.80;;;11.90;99.90;;;;;;5014414;28;20220;-77
2023/12/26 01:22:30;;;;;;;0.77;0.77;;;11.90;99.90;;;;;;5015942;28;20199;-77
2023/12/26 01:25:07;;;;;;;1.03;0.83;;;11.90;99.90;;;;;;5035631;28;20675;-77
2023/12/26 01:27:34;;;;;;;0.93;0.87;;;11.80;99.90;;;;;;5034063;28;20611;-77
2023/12/26 01:30:02;;;;;;;0.73;0.73;;;11.80;99.90;;;;;;5034566;28;20230;-77
2023/12/26 01:32:32;;;;;;;0.63;0.63;;;11.80;99.90;;;;;;5034385;28;20191;-77
2023/12/26 01:35:00;;;;;;;1.10;1.00;;;11.80;99.90;;;;;;5025138;28;20199;-77
2023/12/26 01:37:28;;;;;;;0.70;0.70;;;11.80;99.90;;;;;;5018145;28;20198;-77
2023/12/26 01:39:55;;;;;;;0.80;0.80;;;11.80;99.90;;;;;;5034159;28;20219;-77
2023/12/26 01:42:23;;;;;;;1.07;0.87;;;11.80;99.90;;;;;;5034007;28;20199;-77
2023/12/26 01:44:52;;;;;;;0.70;0.70;;;11.80;99.90;;;;;;5033611;28;20207;-77
2023/12/26 01:47:19;;;;;;;1.40;0.80;;;11.80;99.90;;;;;;5034587;28;20215;-77
2023/12/26 01:49:49;;;;;;;0.70;0.70;;;11.80;99.90;;;;;;5032831;28;20210;-77
2023/12/26 01:52:20;;;;;;;0.87;0.80;;;11.80;99.90;;;;;;5028428;28;20206;-77
2023/12/26 01:54:48;;;;;;;2.37;0.90;;;11.70;99.90;;;;;;5017430;28;20203;-77
2023/12/26 01:57:15;;;;;;;1.27;0.83;;;11.70;99.90;;;;;;5032887;28;20199;-77
2023/12/26 01:59:44;;;;;;;0.73;0.70;;;11.70;99.90;;;;;;5033748;28;20222;-77
2023/12/26 02:02:14;;;;;;;0.80;0.80;;;11.70;99.90;;;;;;5033743;28;20591;-77
2023/12/26 02:04:42;;;;;;;2.43;0.97;;;11.70;99.90;;;;;;5032556;28;20203;-77
2023/12/26 02:07:11;;;;;;;0.90;0.90;;;11.70;99.90;;;;;;5033448;28;20214;-77
2023/12/26 02:09:39;;;;;;;1.83;0.83;;;11.70;99.90;;;;;;5033783;28;20222;-77
2023/12/26 02:12:08;;;;;;;1.53;0.83;;;11.60;99.90;;;;;;5030230;28;20211;-77
2023/12/26 02:14:35;;;;;;;0.50;0.50;;;11.60;99.90;;;;;;5014793;28;20553;-77
2023/12/26 02:17:08;;;;;;;0.70;0.70;;;11.60;99.90;;;;;;5033058;28;20210;-77
2023/12/26 02:19:42;;;;;;;0.93;0.83;;;11.60;99.90;;;;;;5033039;28;20230;-77
2023/12/26 02:22:11;;;;;;;0.73;0.67;;;11.60;99.90;;;;;;5025507;28;20214;-77
2023/12/26 02:24:42;;;;;;;1.10;0.73;;;11.60;99.90;;;;;;5013386;28;20210;-77
2023/12/26 02:27:12;;;;;;;1.23;0.70;;;11.60;99.90;;;;;;5031113;28;20215;-77
2023/12/26 02:29:40;;;;;;;2.30;0.70;;;11.60;99.90;;;;;;5033595;28;20226;-77
2023/12/26 02:32:09;;;;;;;0.90;0.90;;;11.60;99.90;;;;;;5032313;28;20206;-77
2023/12/26 02:34:37;;;;;;;0.73;0.70;;;11.60;99.90;;;;;;5033178;28;20199;-77
2023/12/26 02:37:05;;;;;;;1.13;0.70;;;11.60;99.90;;;;;;5045669;28;20193;-77
2023/12/26 02:39:32;;;;;;;0.67;0.60;;;11.60;99.90;;;;;;5027650;28;20222;-77
2023/12/26 02:42:01;;;;;;;1.07;0.80;;;11.60;99.90;;;;;;5027824;28;20199;-77
2023/12/26 02:44:29;;;;;;;0.93;0.80;;;11.60;99.90;;;;;;5032986;28;20202;-77
2023/12/26 02:46:56;;;;;;;0.80;0.60;;;11.60;99.90;;;;;;5035777;28;20209;-77
2023/12/26 02:49:25;;;;;;;1.80;0.90;;;11.60;99.90;;;;;;5042559;28;20219;-77
2023/12/26 02:51:52;;;;;;;0.60;0.60;;;11.60;99.90;;;;;;5029592;28;20197;-77
2023/12/26 02:54:20;;;;;;;2.70;0.70;;;11.60;99.90;;;;;;5040419;28;20203;-77
2023/12/26 02:56:47;;;;;;;0.63;0.60;;;11.60;99.90;;;;;;5030525;28;20202;-77
2023/12/26 02:59:16;;;;;;;0.57;0.57;;;11.60;99.90;;;;;;5038037;28;20226;-77
2023/12/26 03:01:45;;;;;;;2.40;0.90;;;11.60;99.90;;;;;;5034614;28;20199;-77
2023/12/26 03:04:13;;;;;;;0.70;0.70;;;11.60;99.90;;;;;;5040943;28;20199;-77
2023/12/26 03:06:41;;;;;;;2.50;0.70;;;11.60;99.90;;;;;;5041183;28;20282;-77
2023/12/26 03:09:09;;;;;;;0.73;0.73;;;11.60;99.90;;;;;;5041450;28;20215;-77
2023/12/26 03:11:37;;;;;;;0.90;0.60;;;11.60;99.90;;;;;;5040628;28;20194;-77
2023/12/26 03:14:04;;;;;;;0.80;0.70;;;11.60;99.90;;;;;;5039890;28;20195;-77
2023/12/26 03:16:33;;;;;;;0.90;0.90;;;11.60;99.90;;;;;;5040407;28;20645;-77
2023/12/26 03:19:02;;;;;;;0.90;0.90;;;11.50;99.90;;;;;;5040438;28;20218;-77
2023/12/26 03:21:29;;;;;;;1.03;1.00;;;11.60;99.90;;;;;;5033389;28;20183;-77
2023/12/26 03:23:57;;;;;;;1.43;0.90;;;11.60;99.90;;;;;;5005798;28;20212;-77
2023/12/26 03:26:25;;;;;;;1.20;1.10;;;11.60;99.90;;;;;;5039600;28;20195;-77
2023/12/26 03:28:54;;;;;;;1.30;1.20;;;11.60;99.90;;;;;;5051136;28;20218;-77
2023/12/26 03:31:22;;;;;;;1.50;1.17;;;11.60;99.90;;;;;;5034296;28;20195;-77
2023/12/26 03:33:52;;;;;;;1.60;1.50;;;11.60;99.90;;;;;;5038850;28;20187;-77
2023/12/26 03:36:20;;;;;;;1.27;1.10;;;11.60;99.90;;;;;;5030746;28;20645;-77
2023/12/26 03:38:47;;;;;;;1.30;1.20;;;11.60;99.90;;;;;;5025393;28;20223;-77
2023/12/26 03:41:15;;;;;;;3.10;1.50;;;11.70;99.90;;;;;;5046542;28;20205;-77
2023/12/26 03:43:42;;;;;;;1.70;1.60;;;11.60;99.90;;;;;;5037608;28;20202;-77
2023/12/26 03:46:10;;;;;;;1.90;1.80;;;11.60;99.90;;;;;;5039816;28;20684;-77
2023/12/26 03:48:38;;;;;;;1.80;1.50;;;11.60;99.90;;;;;;5039918;28;20226;-77
2023/12/26 03:51:07;;;;;;;3.07;1.60;;;11.60;99.90;;;;;;5032514;28;20195;-77
2023/12/26 03:53:35;;;;;;;1.50;1.40;;;11.60;99.90;;;;;;5029736;28;20203;-77
2023/12/26 03:56:03;;;;;;;1.27;1.17;;;11.60;99.90;;;;;;5021849;28;20191;-77
2023/12/26 03:58:31;;;;;;;1.63;1.13;;;11.60;99.90;;;;;;5034908;28;20218;-77
2023/12/26 04:00:59;;;;;;;1.60;1.50;;;11.60;99.90;;;;;;5042454;28;20199;-77
2023/12/26 04:03:26;;;;;;;2.07;1.20;;;11.60;99.90;;;;;;5035972;28;20194;-77
2023/12/26 04:05:54;;;;;;;1.00;0.97;;;11.70;99.90;;;;;;5032290;28;20203;-77
2023/12/26 04:08:23;;;;;;;1.20;1.10;;;11.60;99.90;;;;;;5036816;28;20230;-77
2023/12/26 04:10:51;;;;;;;1.43;1.00;;;11.60;99.90;;;;;;5024844;28;20199;-77
2023/12/26 04:13:19;;;;;;;1.53;1.03;;;11.70;99.90;;;;;;5038439;28;20194;-77
2023/12/26 04:15:47;;;;;;;0.97;0.97;;;11.70;99.90;;;;;;5041330;28;20213;-77
2023/12/26 04:18:14;;;;;;;2.10;0.93;;;11.70;99.90;;;;;;5030549;28;20241;-77
2023/12/26 04:20:42;;;;;;;1.03;0.93;;;11.70;99.90;;;;;;5041059;28;20275;-77
2023/12/26 04:23:10;;;;;;;0.90;0.90;;;11.70;99.90;;;;;;5044848;28;20198;-77
2023/12/26 04:25:39;;;;;;;1.27;1.17;;;11.70;99.90;;;;;;5042054;28;20198;-77
2023/12/26 04:28:07;;;;;;;0.80;0.80;;;11.70;99.90;;;;;;5029017;28;20214;-77
2023/12/26 04:30:34;;;;;;;1.63;1.00;;;11.70;99.90;;;;;;5034364;28;20203;-77
2023/12/26 04:33:02;;;;;;;1.10;1.00;;;11.70;99.90;;;;;;5028342;28;20198;-77
2023/12/26 04:35:30;;;;;;;1.30;0.90;;;11.70;99.90;;;;;;5028602;28;20663;-77
2023/12/26 04:37:57;;;;;;;0.77;0.77;;;11.70;99.90;;;;;;5040412;28;20202;-77
2023/12/26 04:40:26;;;;;;;1.20;1.10;;;11.70;99.90;;;;;;5042269;28;20190;-77
2023/12/26 04:42:55;;;;;;;1.27;1.17;;;11.60;99.90;;;;;;5039722;28;20190;-77
2023/12/26 04:45:23;;;;;;;1.30;1.20;;;11.70;99.90;;;;;;5026988;28;20195;-77
2023/12/26 04:47:50;;;;;;;1.57;1.37;;;11.70;99.90;;;;;;5040138;28;20226;-77
2023/12/26 04:50:18;;;;;;;2.10;1.67;;;11.70;99.90;;;;;;5038646;28;20222;-77
2023/12/26 04:52:45;;;;;;;1.97;1.70;;;11.80;99.90;;;;;;5039189;28;20203;-77
2023/12/26 04:55:13;;;;;;;2.47;2.23;;;11.80;99.90;;;;;;5045785;28;20202;-77
2023/12/26 04:57:41;;;;;;;2.33;2.10;;;11.80;99.90;;;;;;5038263;28;20275;-77
2023/12/26 05:00:11;;;;;;;2.50;2.27;;;11.80;99.90;;;;;;5036040;28;20218;-77
2023/12/26 05:02:39;;;;;;;2.80;2.60;;;11.80;99.90;;;;;;5027070;28;20203;-77
2023/12/26 05:05:08;;;;;;;2.30;2.10;;;11.80;99.90;;;;;;5031143;28;20195;-77
2023/12/26 05:07:35;;;;;;;2.60;2.40;;;11.80;99.90;;;;;;5046346;28;20218;-77
2023/12/26 05:10:03;;;;;;;3.43;2.47;;;11.80;99.90;;;;;;5038481;28;20215;-77
2023/12/26 05:12:30;;;;;;;3.07;2.20;;;11.80;99.90;;;;;;5028573;28;20195;-77
2023/12/26 05:14:58;;;;;;;3.13;2.77;;;11.70;99.90;;;;;;5039895;28;20211;-77
2023/12/26 05:17:27;;;;;;;3.30;2.53;;;11.70;99.90;;;;;;5028906;28;20195;-77
2023/12/26 05:19:55;;;;;;;3.43;2.33;;;11.70;99.90;;;;;;5040392;28;20210;-77
2023/12/26 05:22:22;;;;;;;2.40;2.00;;;11.60;99.90;;;;;;5041744;28;20214;-77
2023/12/26 05:24:50;;;;;;;2.27;2.07;;;11.60;99.90;;;;;;5034026;28;20203;-77
2023/12/26 05:27:18;;;;;;;3.30;2.30;;;11.60;99.90;;;;;;5041867;28;20202;-77
2023/12/26 05:29:45;;;;;;;2.73;2.27;;;11.60;99.90;;;;;;5030538;28;20211;-77
2023/12/26 05:32:13;;;;;;;2.70;2.37;;;11.60;99.90;;;;;;5042233;28;20198;-77
2023/12/26 05:34:45;;;;;;;3.00;2.70;;;11.60;99.90;;;;;;5035855;28;20199;-77
2023/12/26 05:37:12;;;;;;;2.57;2.37;;;11.50;99.90;;;;;;5029513;28;20191;-77
2023/12/26 05:39:44;;;;;;;4.43;2.90;;;11.50;99.90;;;;;;5043027;28;20210;-77
2023/12/26 05:42:11;;;;;;;6.67;2.60;;;11.50;99.90;;;;;;5037766;28;20196;-77
2023/12/26 05:44:40;;;;;;;3.73;2.70;;;11.50;99.90;;;;;;5023044;28;20203;-77
2023/12/26 05:47:07;;;;;;;3.90;2.53;;;11.40;99.90;;;;;;5031615;28;20649;-77
2023/12/26 05:49:36;;;;;;;2.17;1.97;;;11.30;99.90;;;;;;5032657;28;20219;-77
2023/12/26 05:52:06;;;;;;;3.10;2.20;;;11.40;99.90;;;;;;5044243;28;20194;-77
2023/12/26 05:54:34;;;;;;;6.60;2.30;;;11.30;99.90;;;;;;5034229;28;20199;-77
2023/12/26 05:57:01;;;;;;;2.27;1.60;;;11.30;99.90;;;;;;5038284;28;20551;-77
2023/12/26 05:59:29;;;;;;;3.03;1.73;;;11.20;99.90;;;;;;5029145;28;20732;-77
2023/12/26 06:01:57;;;;;;;2.67;1.60;;;11.20;99.90;;;;;;5046926;28;20198;-77
2023/12/26 06:04:24;;;;;;;15.57;2.50;;;11.20;99.90;;;;;;5049508;28;20203;-77
2023/12/26 06:06:52;;;;;;;4.97;2.03;;;11.20;99.90;;;;;;5029263;28;20191;-77
2023/12/26 06:09:21;;;;;;;3.33;2.10;;;11.20;99.90;;;;;;5046280;28;20629;-77
2023/12/26 06:11:48;;;;;;;7.47;2.70;;;11.20;99.90;;;;;;5033699;28;20203;-77
2023/12/26 06:14:16;;;;;;;4.23;2.07;;;11.20;99.90;;;;;;5044116;28;20186;-77
2023/12/26 06:16:43;;;;;;;3.93;2.00;;;11.20;99.90;;;;;;5030506;28;20200;-77
2023/12/26 06:19:11;;;;;;;5.70;2.30;;;11.10;99.90;;;;;;5038749;28;20680;-77
2023/12/26 06:21:39;;;;;;;4.67;2.30;;;11.20;99.90;;;;;;5028314;28;20654;-77
2023/12/26 06:24:09;;;;;;;4.77;1.93;;;11.20;99.90;;;;;;5022658;28;20194;-77
2023/12/26 06:26:38;;;;;;;2.67;1.93;;;11.20;99.90;;;;;;5040131;28;20649;-77
2023/12/26 06:29:05;;;;;;;3.40;1.83;;;11.20;99.90;;;;;;5043806;28;20225;-77
2023/12/26 06:31:33;;;;;;;4.20;2.20;;;11.20;99.90;;;;;;5043045;28;20193;-78
2023/12/26 06:34:01;;;;;;;3.60;1.90;;;11.30;99.90;;;;;;5037893;28;20211;-77
2023/12/26 06:36:31;;;;;;;5.25;1.83;;;11.80;99.90;;;;;;5038779;28;20202;-77
2023/12/26 06:39:00;;;;;;;3.88;2.92;;;12.40;99.90;;;;;;5044001;28;20699;-78
2023/12/26 06:41:29;;;;;;;2.33;1.97;;;12.00;99.90;;;;;;5034184;28;20190;-78
2023/12/26 06:43:58;;;;;;;5.55;2.45;;;11.60;99.90;;;;;;5018319;28;20202;-77
2023/12/26 06:46:26;;;;;;;2.57;1.80;;;11.20;99.90;;;;;;5032157;28;20279;-78
2023/12/26 06:49:09;;;;;;;2.90;2.10;;;11.10;99.90;;;;;;5028153;28;20546;-78
2023/12/26 06:51:40;;;;;;;5.40;1.80;;;11.10;99.90;;;;;;5023843;28;20207;-78
2023/12/26 06:54:14;;;;;;;4.40;1.90;;;11.10;99.90;;;;;;5032213;28;20205;-77
2023/12/26 06:56:41;;;;;;;3.30;1.70;;;11.10;99.90;;;;;;5033831;28;20187;-77
2023/12/26 06:59:10;;;;;;;4.57;1.60;;;11.00;99.90;;;;;;5021625;28;20220;-77
2023/12/26 07:01:38;;;;;;;3.50;1.67;;;11.00;99.90;;;;;;5027273;28;20684;-77
2023/12/26 07:04:10;;;;;;;5.80;2.00;;;10.90;99.90;;;;;;5030483;28;20664;-78
2023/12/26 07:06:42;;;;;;;3.60;1.20;;;10.90;99.90;;;;;;5030048;28;20199;-78
2023/12/26 07:09:13;;;;;;;2.17;1.13;;;10.90;99.90;;;;;;5027574;28;20225;-78
2023/12/26 07:11:41;;;;;;;4.30;1.03;;;10.90;99.90;;;;;;5004637;28;20669;-78
2023/12/26 07:14:24;;;;;;;5.77;1.13;;;10.80;99.90;;;;;;5028540;28;20208;-78
2023/12/26 07:17:13;;;;;;;4.73;1.27;;;10.70;99.90;;;;;;5022576;28;20202;-78
2023/12/26 07:19:45;;;;;;;7.10;1.17;;;10.70;99.90;;;;;;5032454;28;20218;-78
2023/12/26 07:22:16;;;;;;;5.03;1.60;;;10.70;99.90;;;;;;5003626;28;20200;-78
2023/12/26 07:25:20;;;;;;;3.00;0.80;;;10.60;99.90;;;;;;5026452;28;20192;-76
2023/12/26 07:27:53;;;;;;;3.53;1.00;;;10.50;99.90;;;;;;5029135;28;20660;-75
2023/12/26 07:30:23;;;;;;;7.83;1.40;;;10.50;99.90;;;;;;5038683;28;20227;-76
2023/12/26 07:33:03;;;;;;;4.23;1.13;;;10.50;99.90;;;;;;5028429;28;20397;-75
2023/12/26 07:35:38;;;;;;;4.67;1.00;;;10.50;99.90;;;;;;5027661;28;20204;-75
2023/12/26 07:38:06;;;;;;;4.60;1.00;;;10.40;99.90;;;;;;5028107;28;20206;-75
2023/12/26 07:40:33;;;;;;;2.63;1.00;;;10.30;99.90;;;;;;5034409;28;20198;-75
2023/12/26 07:43:01;;;;;;;4.40;1.10;;;10.40;99.90;;;;;;5039435;28;20226;-75
2023/12/26 07:45:30;;;;;;;3.37;0.97;;;10.30;99.90;;;;;;5034583;28;20210;-75
2023/12/26 07:47:57;;;;;;;5.87;1.00;;;10.30;99.90;;;;;;5028437;28;20207;-76
2023/12/26 07:50:25;;;;;;;5.40;1.30;;;10.40;99.90;;;;;;5036151;28;20215;-75
2023/12/26 07:52:52;;;;;;;3.50;1.23;;;10.40;99.90;;;;;;5040978;28;20199;-75
2023/12/26 07:55:20;;;;;;;4.60;0.97;;;10.40;99.90;;;;;;5035793;28;20200;-75
2023/12/26 07:57:47;;;;;;;4.80;1.43;;;10.40;99.90;;;;;;5028964;28;20206;-75
2023/12/26 08:00:16;;;;;;;5.63;1.07;;;10.30;99.90;;;;;;5019400;28;20217;-75
2023/12/26 08:02:45;;;;;;;5.47;1.23;;;10.30;99.90;;;;;;5043955;28;20182;-75
2023/12/26 08:05:12;;;;;;;5.20;1.17;;;10.30;99.90;;;;;;5034582;28;20551;-75
2023/12/26 08:07:40;;;;;;;3.63;1.40;;;10.30;99.90;;;;;;5035363;28;20203;-76
2023/12/26 08:10:08;;;;;;;5.73;1.60;;;10.30;99.90;;;;;;5040472;28;20218;-76
2023/12/26 08:12:35;;;;;;;2.90;1.30;;;10.30;99.90;;;;;;5040525;28;20179;-76
2023/12/26 08:15:03;;;;;;;5.00;1.60;;;10.30;99.90;;;;;;5040707;28;20199;-76
2023/12/26 08:17:31;;;;;;;7.10;1.67;;;10.20;99.90;;;;;;5037396;28;20186;-75
2023/12/26 08:20:00;;;;;;;4.10;1.83;;;10.30;99.90;;;;;;5033424;28;20211;-76
2023/12/26 08:22:27;;;;;;;7.13;1.67;;;10.30;99.90;;;;;;5034151;28;20209;-76
2023/12/26 08:24:55;;;;;;;3.23;1.30;;;10.30;99.90;;;;;;5036260;28;20660;-76
2023/12/26 08:27:22;;;;;;;7.80;1.57;;;10.30;99.90;;;;;;5042240;28;20199;-76
2023/12/26 08:30:09;;;;;;;6.53;2.13;;;10.30;99.90;;;;;;5043120;28;20226;-76
2023/12/26 08:32:36;;;;;;;4.70;1.83;;;10.20;99.90;;;;;;5037615;28;20800;-76
2023/12/26 08:35:07;;;;;;;5.90;1.77;;;10.20;99.90;;;;;;5033152;28;20198;-76
2023/12/26 08:37:34;;;;;;;5.10;1.70;;;10.20;99.90;;;;;;5037234;28;20214;-76
2023/12/26 08:40:03;;;;;;;4.63;1.50;;;10.10;99.90;;;;;;5036351;28;20550;-76
2023/12/26 08:42:30;;;;;;;4.10;1.33;;;10.10;99.90;;;;;;5042281;28;20197;-76
2023/12/26 08:44:58;;;;;;;4.93;1.30;;;10.10;99.90;;;;;;5035482;28;20671;-76
2023/12/26 08:50:53;;;;;;;7.07;1.73;;;10.00;99.90;;;;;;5030775;28;20210;-76
2023/12/26 08:53:21;;;;;;;4.10;1.43;;;10.00;99.90;;;;;;5039756;28;20194;-76
2023/12/26 08:55:50;;;;;;;3.23;1.37;;;10.10;99.90;;;;;;5038581;28;20190;-76
2023/12/26 08:58:18;;;;;;;8.67;1.77;;;10.00;99.90;;;;;;5050766;28;20214;-76
2023/12/26 09:00:50;;;;;;;6.83;1.60;;;9.90;99.90;;;;;;5031383;28;20187;-76
2023/12/26 09:03:18;;;;;;;4.03;1.47;;;10.00;99.90;;;;;;5042188;28;20194;-76
2023/12/26 09:05:45;;;;;;;4.30;1.30;;;10.00;99.90;;;;;;5035753;28;20195;-76
2023/12/26 09:08:18;;;;;;;4.93;1.60;;;10.10;99.90;;;;;;5038439;28;20198;-75
2023/12/26 09:10:47;;;;;;;3.30;1.77;;;10.10;99.90;;;;;;5030434;28;20203;-76
2023/12/26 09:13:20;;;;;;;3.63;1.40;;;10.10;99.90;;;;;;5029037;28;20198;-76
2023/12/26 09:15:48;;;;;;;4.70;1.70;;;10.20;99.90;;;;;;5038454;28;20186;-76
2023/12/26 09:18:16;;;;;;;4.37;1.53;;;10.10;99.90;;;;;;5027967;28;20222;-77
2023/12/26 09:20:44;;;;;;;2.93;1.30;;;10.10;99.90;;;;;;5043779;28;20194;-76
2023/12/26 09:23:13;;;;;;;4.87;1.63;;;10.10;99.90;;;;;;5043593;28;20276;-76
2023/12/26 09:25:41;;;;;;;7.27;1.87;;;10.10;99.90;;;;;;5035651;28;20203;-76
2023/12/26 09:28:09;;;;;;;7.00;1.47;;;10.00;99.90;;;;;;5040572;28;20203;-76
2023/12/26 09:30:37;;;;;;;8.13;1.83;;;9.90;99.90;;;;;;5045719;28;20202;-75
2023/12/26 09:33:07;;;;;;;6.23;1.43;;;10.00;99.90;;;;;;5040981;28;20190;-75
2023/12/26 09:35:35;;;;;;;5.20;1.70;;;9.90;99.90;;;;;;5037362;28;20199;-75
2023/12/26 09:38:03;;;;;;;6.07;1.70;;;10.00;99.90;;;;;;5045620;28;20209;-75
2023/12/26 09:40:32;;;;;;;3.60;1.50;;;10.00;99.90;;;;;;5041984;28;20197;-75
2023/12/26 09:43:01;;;;;;;6.53;1.60;;;10.00;99.90;;;;;;5033582;28;20199;-75
2023/12/26 09:45:28;;;;;;;5.43;1.70;;;10.00;99.90;;;;;;5037786;28;20203;-75
2023/12/26 09:47:56;;;;;;;10.03;1.80;;;10.10;99.90;;;;;;5044755;28;20194;-75
2023/12/26 09:50:24;;;;;;;5.67;2.13;;;10.10;99.90;;;;;;5047628;28;20601;-76
2023/12/26 09:52:53;;;;;;;7.70;1.63;;;10.30;99.90;;;;;;5041837;28;20198;-76
2023/12/26 09:55:21;;;;;;;4.53;1.50;;;10.40;99.90;;;;;;5035080;28;20195;-76
2023/12/26 09:57:50;;;;;;;4.80;1.67;;;10.60;99.90;;;;;;5032223;28;20194;-76
2023/12/26 10:00:18;;;;;;;6.67;1.77;;;10.60;99.90;;;;;;5020589;28;20215;-76
2023/12/26 10:03:00;;;;;;;8.93;2.07;;;10.70;99.90;;;;;;5013619;28;20207;-76
2023/12/26 10:05:27;;;;;;;7.10;1.97;;;10.90;99.90;;;;;;5028311;28;20202;-76
2023/12/26 10:07:55;;;;;;;7.73;1.90;;;10.90;99.90;;;;;;5017144;28;20199;-76
2023/12/26 10:10:23;;;;;;;7.50;2.03;;;10.90;99.90;;;;;;5031214;28;20207;-76
2023/12/26 10:12:52;;;;;;;4.17;1.60;;;10.80;99.90;;;;;;5032631;28;20199;-76
2023/12/26 10:15:36;;;;;;;4.60;1.33;;;10.70;99.90;;;;;;5029450;28;20202;-76
2023/12/26 10:18:04;;;;;;;6.27;1.90;;;10.50;99.90;;;;;;5032253;28;20575;-76
2023/12/26 10:20:34;;;;;;;7.03;2.00;;;10.50;99.90;;;;;;5021538;28;20206;-76
2023/12/26 10:23:04;;;;;;;6.07;1.90;;;10.50;99.90;;;;;;5022240;28;20203;-76
2023/12/26 10:25:32;;;;;;;5.10;1.63;;;10.50;99.90;;;;;;5034971;28;20669;-75
2023/12/26 10:28:01;;;;;;;5.33;1.60;;;10.50;99.90;;;;;;5017720;28;20578;-76
2023/12/26 10:30:28;;;;;;;8.13;1.73;;;10.50;99.90;;;;;;5031290;28;20199;-76
2023/12/26 10:33:00;;;;;;;5.50;1.53;;;10.50;99.90;;;;;;5030666;28;20203;-76
2023/12/26 10:35:33;;;;;;;3.93;1.70;;;10.40;99.90;;;;;;5032607;28;20199;-76
2023/12/26 10:38:01;;;;;;;4.47;2.13;;;10.40;99.90;;;;;;5016584;28;20195;-76
2023/12/26 10:41:10;;;;;;;3.87;1.70;;;10.40;99.90;;;;;;5028768;28;20192;-76
2023/12/26 10:43:55;;;;;;;8.93;2.17;;;10.40;99.90;;;;;;5027271;28;20199;-76
2023/12/26 10:46:24;;;;;;;5.40;1.90;;;10.30;99.90;;;;;;5032113;28;20652;-76
2023/12/26 10:48:55;;;;;;;4.67;2.17;;;10.40;99.90;;;;;;5023786;28;20736;-76
2023/12/26 10:51:25;;;;;;;7.27;2.00;;;10.40;99.90;;;;;;5035345;28;20203;-76
2023/12/26 10:53:57;;;;;;;7.53;2.33;;;10.40;99.90;;;;;;5032101;28;20199;-76
2023/12/26 10:56:58;;;;;;;7.80;1.80;;;10.40;99.90;;;;;;5031087;28;20680;-76
2023/12/26 13:53:52;;;;;;;8.27;2.20;;;10.50;99.90;;;;;;5024683;28;20191;-76
2023/12/26 13:56:23;;;;;;;9.57;2.43;;;10.50;99.90;;;;;;5029229;28;20199;-76
2023/12/26 13:58:50;;;;;;;6.20;2.47;;;10.40;99.90;;;;;;5023077;28;20576;-76
2023/12/26 14:05:08;;;;;;;4.50;1.57;;;10.40;99.90;;;;;;5027274;28;20183;-76
2023/12/26 14:07:36;;;;;;;8.33;2.33;;;10.30;99.90;;;;;;5015253;28;20206;-75
2023/12/26 14:10:05;;;;;;;5.60;2.20;;;10.30;99.90;;;;;;5024744;28;20227;-75
2023/12/26 14:12:41;;;;;;;4.93;1.70;;;10.30;99.90;;;;;;5012751;28;20223;-75
2023/12/26 14:15:12;;;;;;;3.90;1.77;;;10.30;99.90;;;;;;5020155;28;20199;-75
2023/12/26 14:18:08;;;;;;;8.00;2.33;;;10.30;99.90;;;;;;5009778;28;20203;-76
2023/12/26 14:20:52;;;;;;;7.00;1.80;;;10.30;99.90;;;;;;5026142;28;20191;-76
2023/12/26 14:23:19;;;;;;;7.07;2.00;;;10.30;99.90;;;;;;5040657;28;20201;-75
2023/12/26 14:26:02;;;;;;;7.87;2.07;;;10.20;99.90;;;;;;5024284;28;20201;-75
2023/12/26 14:28:33;;;;;;;8.73;2.03;;;10.20;99.90;;;;;;5026403;28;20227;-76
2023/12/26 14:31:01;;;;;;;5.33;2.10;;;10.30;99.90;;;;;;5019209;28;20716;-75
2023/12/26 14:33:28;;;;;;;5.03;1.77;;;10.20;99.90;;;;;;5024322;28;20210;-76
2023/12/26 14:36:18;;;;;;;5.30;1.90;;;10.20;99.90;;;;;;5042963;28;20259;-77
2023/12/26 14:39:22;;;;;;;5.30;1.90;;;10.60;99.90;;;;;;5021436;28;20223;-76
2023/12/26 14:41:50;;;;;;;6.90;2.40;;;10.40;99.90;;;;;;5023857;28;20192;-77
2023/12/26 14:44:20;;;;;;;6.70;2.40;;;10.50;99.90;;;;;;5003925;28;20195;-76
2023/12/26 14:46:47;;;;;;;9.23;2.00;;;10.40;99.90;;;;;;5021688;28;20195;-75
2023/12/26 14:49:14;;;;;;;7.33;2.20;;;10.20;99.90;;;;;;5019502;28;20228;-76
2023/12/26 14:51:41;;;;;;;8.13;2.43;;;10.20;99.90;;;;;;5023975;28;20682;-75
2023/12/26 14:54:15;;;;;;;8.27;2.13;;;10.10;99.90;;;;;;5022039;28;20211;-76
2023/12/26 14:57:00;;;;;;;6.00;1.80;;;10.10;99.90;;;;;;5036445;28;20194;-75
2023/12/26 14:59:27;;;;;;;4.77;1.90;;;10.10;99.90;;;;;;5031330;28;20218;-75
2023/12/26 15:01:57;;;;;;;3.70;2.20;;;10.20;99.90;;;;;;5027273;28;20195;-76
2023/12/26 15:04:29;;;;;;;3.53;2.00;;;10.20;99.90;;;;;;5025074;28;20215;-76
2023/12/26 15:07:05;;;;;;;4.87;1.83;;;10.20;99.90;;;;;;5024684;28;20206;-76
2023/12/26 15:09:49;;;;;;;5.90;1.97;;;10.10;99.90;;;;;;5020144;28;20215;-75
2023/12/26 15:12:47;;;;;;;7.17;2.00;;;10.00;99.90;;;;;;5006439;28;20230;-76
2023/12/26 15:15:32;;;;;;;8.30;1.90;;;10.00;99.90;;;;;;5018021;28;20202;-75
2023/12/26 15:18:00;;;;;;;10.23;2.83;;;9.90;99.90;;;;;;5013234;28;20214;-75
2023/12/26 15:20:27;;;;;;;8.07;2.10;;;9.80;99.90;;;;;;5029451;28;20198;-75
2023/12/26 15:22:55;;;;;;;8.77;2.97;;;9.90;99.90;;;;;;5006344;28;20192;-76
2023/12/26 15:25:22;;;;;;;8.37;2.53;;;9.80;99.90;;;;;;5032730;28;20213;-76
2023/12/26 15:27:51;;;;;;;6.33;1.80;;;9.90;99.90;;;;;;5000989;28;20207;-75
2023/12/26 15:30:21;;;;;;;9.90;2.73;;;9.80;99.90;;;;;;5024879;28;20222;-76
2023/12/26 15:32:49;;;;;;;8.63;2.47;;;9.70;99.90;;;;;;5023041;28;20685;-76
2023/12/26 15:35:51;;;;;;;8.17;2.20;;;9.80;99.90;;;;;;5023555;28;20200;-76
2023/12/26 15:38:18;;;;;;;9.27;2.93;;;9.80;99.90;;;;;;5022474;28;20775;-76
2023/12/26 15:41:17;;;;;;;6.73;2.33;;;9.80;99.90;;;;;;5033020;28;20199;-76
2023/12/26 15:43:56;;;;;;;6.60;2.43;;;9.80;99.90;;;;;;5031081;28;20668;-76
2023/12/26 15:46:25;;;;;;;7.53;2.47;;;9.80;99.90;;;;;;5023954;28;20219;-76
2023/12/26 15:48:54;;;;;;;8.63;2.23;;;9.80;99.90;;;;;;5035903;28;20221;-76
2023/12/26 15:51:24;;;;;;;8.80;2.93;;;9.90;99.90;;;;;;5021091;28;20192;-76
2023/12/26 15:53:52;;;;;;;6.53;3.50;;;9.90;99.90;;;;;;5024998;28;20202;-76
2023/12/26 15:56:21;;;;;;;8.20;2.77;;;9.90;99.90;;;;;;5018423;28;20195;-76
2023/12/26 15:58:49;;;;;;;8.53;2.37;;;9.90;99.90;;;;;;5033386;28;20214;-76
2023/12/26 16:04:29;;;;;;;6.97;2.90;;;9.90;99.90;;;;;;5016199;28;20195;-76
2023/12/26 16:06:57;;;;;;;6.40;2.53;;;9.90;99.90;;;;;;5033376;28;20195;-76